Time,TemperatureF,DewpointF,PressureIn,WindDirection,WindDirectionDegrees,WindSpeedMPH,WindSpeedGustMPH,Humidity,HourlyPrecipIn,Conditions,Clouds,dailyrainin,SoftwareType,DateUTC
2013-01-24 00:00:00,37.0,33.2,29.88,ENE,77,2.0,3.0,86,0.00,,---,0.00,VWS V14.00,2013-01-24 00:00:00,
2013-01-24 00:05:00,37.0,33.2,29.88,ENE,77,1.0,2.0,86,0.00,,---,0.00,VWS V14.00,2013-01-24 00:05:00,
2013-01-24 00:10:00,36.9,33.4,29.88,ENE,77,0.0,0.0,87,0.00,,---,0.00,VWS V14.00,2013-01-24 00:10:00,
2013-01-24 00:15:00,36.9,33.4,29.89,ENE,77,0.0,0.0,87,0.00,,---,0.00,VWS V14.00,2013-01-24 00:15:00,
2013-01-24 00:20:00,36.9,33.4,29.89,ENE,77,0.0,0.0,87,0.00,,---,0.00,VWS V14.00,2013-01-24 00:20:00,
2013-01-24 00:25:00,36.9,33.4,29.89,ENE,77,0.0,0.0,87,0.00,,---,0.00,VWS V14.00,2013-01-24 00:25:00,
2013-01-24 00:30:00,36.9,33.4,29.89,ENE,77,0.0,0.0,87,0.00,,---,0.00,VWS V14.00,2013-01-24 00:30:00,
2013-01-24 00:35:00,36.9,33.4,29.89,ENE,77,0.0,0.0,87,0.00,,---,0.00,VWS V14.00,2013-01-24 00:35:00,
2013-01-24 00:40:00,36.9,33.4,29.90,ENE,77,0.0,0.0,87,0.00,,---,0.00,VWS V14.00,2013-01-24 00:40:00,
2013-01-24 00:45:00,36.9,33.4,29.89,ENE,77,0.0,0.0,87,0.00,,---,0.00,VWS V14.00,2013-01-24 00:45:00,
2013-01-24 00:50:00,36.9,33.4,29.90,ENE,77,0.0,0.0,87,0.00,,---,0.00,VWS V14.00,2013-01-24 00:50:00,
2013-01-24 00:55:00,36.9,33.4,29.89,ENE,77,0.0,0.0,87,0.00,,---,0.00,VWS V14.00,2013-01-24 00:55:00,
2013-01-24 01:00:00,36.9,33.4,29.89,ENE,77,0.0,0.0,87,0.00,,---,0.00,VWS V14.00,2013-01-24 01:00:00,
2013-01-24 01:05:00,36.9,33.4,29.90,ENE,77,0.0,0.0,87,0.00,,---,0.00,VWS V14.00,2013-01-24 01:05:00,
2013-01-24 01:10:00,37.0,33.5,29.90,ENE,77,0.0,0.0,87,0.00,,---,0.00,VWS V14.00,2013-01-24 01:10:00,
2013-01-24 01:15:00,37.1,33.6,29.90,ENE,77,0.0,0.0,87,0.00,,---,0.00,VWS V14.00,2013-01-24 01:15:00,
2013-01-24 01:20:00,37.1,33.6,29.90,ENE,77,0.0,0.0,87,0.00,,---,0.00,VWS V14.00,2013-01-24 01:20:00,
2013-01-24 01:25:00,37.1,33.6,29.89,ENE,77,0.0,0.0,87,0.00,,---,0.00,VWS V14.00,2013-01-24 01:25:00,
2013-01-24 01:30:00,37.1,33.6,29.90,ENE,77,0.0,0.0,87,0.00,,---,0.00,VWS V14.00,2013-01-24 01:30:00,
2013-01-24 01:35:00,37.1,33.6,29.90,ENE,77,0.0,0.0,87,0.00,,---,0.00,VWS V14.00,2013-01-24 01:35:00,
2013-01-24 01:40:00,37.1,33.3,29.91,ENE,77,0.0,0.0,86,0.00,,---,0.00,VWS V14.00,2013-01-24 01:40:00,
2013-01-24 01:45:00,37.1,33.6,29.91,ENE,77,0.0,0.0,87,0.00,,---,0.00,VWS V14.00,2013-01-24 01:45:00,
2013-01-24 01:50:00,37.1,33.6,29.91,ENE,77,0.0,0.0,87,0.00,,---,0.00,VWS V14.00,2013-01-24 01:50:00,
2013-01-24 01:55:00,37.1,33.6,29.91,ENE,77,0.0,0.0,87,0.00,,---,0.00,VWS V14.00,2013-01-24 01:55:00,
2013-01-24 02:00:00,37.1,33.6,29.91,ENE,77,0.0,0.0,87,0.00,,---,0.00,VWS V14.00,2013-01-24 02:00:00,
2013-01-24 02:05:00,37.1,33.6,29.91,ENE,77,0.0,0.0,87,0.00,,---,0.00,VWS V14.00,2013-01-24 02:05:00,
2013-01-24 02:10:00,37.1,33.3,29.92,ENE,77,0.0,0.0,86,0.00,,---,0.00,VWS V14.00,2013-01-24 02:10:00,
2013-01-24 02:15:00,37.2,33.7,29.92,ENE,77,0.0,0.0,87,0.00,,---,0.00,VWS V14.00,2013-01-24 02:15:00,
2013-01-24 02:20:00,37.3,33.8,29.92,ENE,77,0.0,0.0,87,0.00,,---,0.00,VWS V14.00,2013-01-24 02:20:00,
2013-01-24 02:25:00,37.3,33.8,29.92,ENE,77,0.0,0.0,87,0.00,,---,0.00,VWS V14.00,2013-01-24 02:25:00,
2013-01-24 02:30:00,37.3,33.8,29.92,ENE,77,0.0,0.0,87,0.00,,---,0.00,VWS V14.00,2013-01-24 02:30:00,
2013-01-24 02:35:00,37.3,33.8,29.92,ENE,77,0.0,0.0,87,0.00,,---,0.00,VWS V14.00,2013-01-24 02:35:00,
2013-01-24 02:40:00,37.3,33.5,29.93,ENE,77,0.0,0.0,86,0.00,,---,0.00,VWS V14.00,2013-01-24 02:40:00,
2013-01-24 02:45:00,37.3,33.5,29.93,ENE,77,0.0,0.0,86,0.00,,---,0.00,VWS V14.00,2013-01-24 02:45:00,
2013-01-24 02:50:00,37.3,33.5,29.93,ENE,77,0.0,0.0,86,0.00,,---,0.00,VWS V14.00,2013-01-24 02:50:00,
2013-01-24 02:55:00,37.4,33.6,29.93,ENE,77,0.0,0.0,86,0.00,,---,0.00,VWS V14.00,2013-01-24 02:55:00,
2013-01-24 03:00:00,37.4,33.6,29.93,ENE,77,0.0,0.0,86,0.00,,---,0.00,VWS V14.00,2013-01-24 03:00:00,
2013-01-24 03:05:00,37.4,33.9,29.92,ENE,77,0.0,0.0,87,0.00,,---,0.00,VWS V14.00,2013-01-24 03:05:00,
2013-01-24 03:10:00,37.4,33.9,29.92,ENE,77,0.0,0.0,87,0.00,,---,0.00,VWS V14.00,2013-01-24 03:10:00,
2013-01-24 03:15:00,37.4,33.9,29.92,ENE,77,0.0,0.0,87,0.00,,---,0.00,VWS V14.00,2013-01-24 03:15:00,
2013-01-24 03:20:00,37.3,33.8,29.93,ENE,77,0.0,0.0,87,0.00,,---,0.00,VWS V14.00,2013-01-24 03:20:00,
2013-01-24 03:25:00,37.3,33.8,29.93,ENE,77,0.0,0.0,87,0.00,,---,0.00,VWS V14.00,2013-01-24 03:25:00,
2013-01-24 03:30:00,37.3,33.8,29.93,ENE,77,0.0,0.0,87,0.00,,---,0.00,VWS V14.00,2013-01-24 03:30:00,
2013-01-24 03:35:00,37.2,33.7,29.93,ENE,77,0.0,0.0,87,0.00,,---,0.00,VWS V14.00,2013-01-24 03:35:00,
2013-01-24 03:40:00,37.1,33.6,29.93,ENE,77,0.0,0.0,87,0.00,,---,0.00,VWS V14.00,2013-01-24 03:40:00,
2013-01-24 03:45:00,37.1,33.6,29.93,ENE,77,0.0,0.0,87,0.00,,---,0.00,VWS V14.00,2013-01-24 03:45:00,
2013-01-24 03:50:00,37.1,33.6,29.93,ENE,77,0.0,0.0,87,0.00,,---,0.00,VWS V14.00,2013-01-24 03:50:00,
2013-01-24 03:55:00,37.2,33.7,29.93,ENE,77,0.0,0.0,87,0.00,,---,0.00,VWS V14.00,2013-01-24 03:55:00,
2013-01-24 04:00:00,37.2,33.7,29.93,ENE,77,0.0,0.0,87,0.00,,---,0.00,VWS V14.00,2013-01-24 04:00:00,
2013-01-24 04:05:00,37.3,33.8,29.93,ENE,77,0.0,0.0,87,0.00,,---,0.00,VWS V14.00,2013-01-24 04:05:00,
2013-01-24 04:10:00,37.3,33.8,29.94,ENE,77,0.0,0.0,87,0.00,,---,0.00,VWS V14.00,2013-01-24 04:10:00,
2013-01-24 04:15:00,37.3,33.8,29.94,ENE,77,0.0,0.0,87,0.00,,---,0.00,VWS V14.00,2013-01-24 04:15:00,
2013-01-24 04:20:00,37.4,33.9,29.94,ENE,77,0.0,0.0,87,0.00,,---,0.00,VWS V14.00,2013-01-24 04:20:00,
2013-01-24 04:25:00,37.5,34.3,29.94,ENE,77,0.0,0.0,88,0.00,,---,0.00,VWS V14.00,2013-01-24 04:25:00,
2013-01-24 04:30:00,37.5,34.3,29.94,ENE,77,2.0,2.0,88,0.00,,---,0.00,VWS V14.00,2013-01-24 04:30:00,
2013-01-24 04:35:00,37.6,34.4,29.94,ENE,77,2.0,3.0,88,0.00,,---,0.00,VWS V14.00,2013-01-24 04:35:00,
2013-01-24 04:40:00,37.7,34.8,29.94,ENE,77,2.0,3.0,89,0.00,,---,0.00,VWS V14.00,2013-01-24 04:40:00,
2013-01-24 04:45:00,37.8,34.9,29.94,ENE,77,2.0,2.0,89,0.00,,---,0.00,VWS V14.00,2013-01-24 04:45:00,
2013-01-24 04:50:00,37.9,35.0,29.95,ENE,77,3.0,3.0,89,0.00,,---,0.00,VWS V14.00,2013-01-24 04:50:00,
2013-01-24 04:55:00,38.0,35.0,29.95,ENE,77,2.0,2.0,89,0.00,,---,0.00,VWS V14.00,2013-01-24 04:55:00,
2013-01-24 05:00:00,37.9,35.0,29.95,ENE,77,2.0,2.0,89,0.00,,---,0.00,VWS V14.00,2013-01-24 05:00:00,
2013-01-24 05:03:00,38.0,35.0,29.95,ENE,77,2.0,3.0,89,0.00,,---,0.00,VWS V14.00,2013-01-24 05:03:00,
2013-01-24 05:05:00,38.0,35.0,29.95,ENE,77,4.0,4.0,89,0.00,,---,0.00,VWS V14.00,2013-01-24 05:05:00,
2013-01-24 05:07:00,38.0,35.0,29.95,ENE,77,2.0,3.0,89,0.00,,---,0.00,VWS V14.00,2013-01-24 05:07:00,
2013-01-24 05:12:00,38.0,35.0,29.96,ENE,77,3.0,3.0,89,0.00,,---,0.00,VWS V14.00,2013-01-24 05:12:00,
2013-01-24 05:17:00,38.1,35.2,29.96,ENE,77,4.0,4.0,89,0.00,,---,0.00,VWS V14.00,2013-01-24 05:17:00,
2013-01-24 05:22:00,38.2,35.5,29.96,SSW,198,5.0,5.0,90,0.00,,---,0.00,VWS V14.00,2013-01-24 05:22:00,
2013-01-24 05:27:00,38.2,35.5,29.96,SSW,193,1.0,2.0,90,0.00,,---,0.00,VWS V14.00,2013-01-24 05:27:00,
2013-01-24 05:32:00,38.1,35.4,29.96,SSW,205,3.0,4.0,90,0.00,,---,0.00,VWS V14.00,2013-01-24 05:32:00,
2013-01-24 05:37:00,38.0,35.6,29.96,SSW,202,4.0,4.0,91,0.00,,---,0.00,VWS V14.00,2013-01-24 05:37:00,
2013-01-24 05:42:00,37.9,35.5,29.96,SSW,210,0.0,2.0,91,0.00,,---,0.00,VWS V14.00,2013-01-24 05:42:00,
2013-01-24 05:47:00,37.9,35.5,29.96,SW,225,2.0,2.0,91,0.00,,---,0.00,VWS V14.00,2013-01-24 05:47:00,
2013-01-24 05:52:00,37.8,35.7,29.97,SW,214,4.0,6.0,92,0.00,,---,0.00,VWS V14.00,2013-01-24 05:52:00,
2013-01-24 05:57:00,37.7,35.6,29.97,SW,231,2.0,4.0,92,0.00,,---,0.00,VWS V14.00,2013-01-24 05:57:00,
2013-01-24 06:02:00,37.7,35.6,29.97,SW,218,1.0,3.0,92,0.00,,---,0.00,VWS V14.00,2013-01-24 06:02:00,
2013-01-24 06:07:00,37.6,35.5,29.97,SW,219,1.0,2.0,92,0.00,,---,0.00,VWS V14.00,2013-01-24 06:07:00,
2013-01-24 06:12:00,37.6,35.8,29.97,SW,222,2.0,2.0,93,0.00,,---,0.00,VWS V14.00,2013-01-24 06:12:00,
2013-01-24 06:17:00,37.5,35.7,29.98,SW,220,2.0,2.0,93,0.00,,---,0.00,VWS V14.00,2013-01-24 06:17:00,
2013-01-24 06:22:00,37.4,35.6,29.98,SW,221,2.0,3.0,93,0.00,,---,0.00,VWS V14.00,2013-01-24 06:22:00,
2013-01-24 06:27:00,37.4,35.6,29.98,SW,229,2.0,3.0,93,0.00,,---,0.00,VWS V14.00,2013-01-24 06:27:00,
2013-01-24 06:33:00,37.4,35.6,29.99,WSW,246,1.0,3.0,93,0.00,,---,0.00,VWS V14.00,2013-01-24 06:33:00,
2013-01-24 06:38:00,37.4,35.6,29.99,WSW,245,2.0,3.0,93,0.00,,---,0.00,VWS V14.00,2013-01-24 06:38:00,
2013-01-24 06:43:00,37.3,35.5,29.99,WSW,241,0.0,4.0,93,0.00,,---,0.00,VWS V14.00,2013-01-24 06:43:00,
2013-01-24 06:48:00,37.3,35.5,29.99,SW,222,0.0,2.0,93,0.00,,---,0.00,VWS V14.00,2013-01-24 06:48:00,
2013-01-24 06:53:00,37.3,35.5,29.99,SW,229,4.0,5.0,93,0.00,,---,0.00,VWS V14.00,2013-01-24 06:53:00,
2013-01-24 06:58:00,37.2,35.4,29.99,SW,232,1.0,3.0,93,0.00,,---,0.00,VWS V14.00,2013-01-24 06:58:00,
2013-01-24 07:03:00,37.2,35.4,30.00,SW,233,4.0,4.0,93,0.00,,---,0.00,VWS V14.00,2013-01-24 07:03:00,
2013-01-24 07:08:00,37.2,35.4,30.00,SW,232,1.0,1.0,93,0.00,,---,0.00,VWS V14.00,2013-01-24 07:08:00,
2013-01-24 07:13:00,37.2,35.6,30.00,SW,232,0.0,3.0,94,0.00,,---,0.00,VWS V14.00,2013-01-24 07:13:00,
2013-01-24 07:18:00,37.2,35.4,30.00,SW,231,2.0,3.0,93,0.00,,---,0.00,VWS V14.00,2013-01-24 07:18:00,
2013-01-24 07:23:00,37.2,35.6,29.99,SW,231,0.0,1.0,94,0.00,,---,0.00,VWS V14.00,2013-01-24 07:23:00,
2013-01-24 07:28:00,37.2,35.6,30.00,SW,232,0.0,3.0,94,0.00,,---,0.00,VWS V14.00,2013-01-24 07:28:00,
2013-01-24 07:33:00,37.2,35.6,30.00,WSW,241,2.0,4.0,94,0.00,,---,0.00,VWS V14.00,2013-01-24 07:33:00,
2013-01-24 07:38:00,37.2,35.6,30.01,WSW,239,2.0,3.0,94,0.00,,---,0.00,VWS V14.00,2013-01-24 07:38:00,
2013-01-24 07:43:00,37.2,35.6,30.01,WSW,237,2.0,4.0,94,0.00,,---,0.00,VWS V14.00,2013-01-24 07:43:00,
2013-01-24 07:48:00,37.3,35.7,30.01,SW,230,2.0,3.0,94,0.00,,---,0.00,VWS V14.00,2013-01-24 07:48:00,
2013-01-24 07:53:00,37.3,35.7,30.01,SW,229,4.0,4.0,94,0.00,,---,0.00,VWS V14.00,2013-01-24 07:53:00,
2013-01-24 07:58:00,37.3,35.7,30.01,SW,231,2.0,3.0,94,0.00,,---,0.00,VWS V14.00,2013-01-24 07:58:00,
2013-01-24 08:03:00,37.3,35.7,30.01,SW,231,1.0,3.0,94,0.00,,---,0.00,VWS V14.00,2013-01-24 08:03:00,
2013-01-24 08:08:00,37.3,35.7,30.01,SW,231,2.0,2.0,94,0.00,,---,0.00,VWS V14.00,2013-01-24 08:08:00,
2013-01-24 08:13:00,37.3,35.7,30.02,SW,231,1.0,4.0,94,0.00,,---,0.00,VWS V14.00,2013-01-24 08:13:00,
2013-01-24 08:18:00,37.4,35.8,30.02,SW,231,0.0,3.0,94,0.00,,---,0.00,VWS V14.00,2013-01-24 08:18:00,
2013-01-24 08:23:00,37.5,35.9,30.02,SW,231,2.0,2.0,94,0.00,,---,0.00,VWS V14.00,2013-01-24 08:23:00,
2013-01-24 08:28:00,37.5,35.9,30.03,SW,231,0.0,1.0,94,0.00,,---,0.00,VWS V14.00,2013-01-24 08:28:00,
2013-01-24 08:33:00,37.5,35.9,30.03,SW,234,0.0,1.0,94,0.00,,---,0.00,VWS V14.00,2013-01-24 08:33:00,
2013-01-24 08:38:00,37.6,36.0,30.03,SW,234,0.0,2.0,94,0.00,,---,0.00,VWS V14.00,2013-01-24 08:38:00,
2013-01-24 08:43:00,37.6,35.8,30.03,SW,234,0.0,2.0,93,0.00,,---,0.00,VWS V14.00,2013-01-24 08:43:00,
2013-01-24 08:48:00,37.7,35.9,30.02,SW,234,0.0,1.0,93,0.00,,---,0.00,VWS V14.00,2013-01-24 08:48:00,
2013-01-24 08:53:00,37.7,35.9,30.02,South,191,3.0,6.0,93,0.00,,---,0.00,VWS V14.00,2013-01-24 08:53:00,
2013-01-24 08:58:00,37.8,35.7,30.02,South,188,1.0,2.0,92,0.00,,---,0.00,VWS V14.00,2013-01-24 08:58:00,
2013-01-24 09:03:00,38.0,35.9,30.02,SSW,202,1.0,3.0,92,0.00,,---,0.00,VWS V14.00,2013-01-24 09:03:00,
2013-01-24 09:08:00,38.0,35.9,30.02,SSE,166,1.0,3.0,92,0.00,,---,0.00,VWS V14.00,2013-01-24 09:08:00,
2013-01-24 09:13:00,38.2,36.1,30.02,SSE,168,3.0,6.0,92,0.00,,---,0.00,VWS V14.00,2013-01-24 09:13:00,
2013-01-24 09:18:00,38.3,36.2,30.02,SSW,194,2.0,3.0,92,0.00,,---,0.00,VWS V14.00,2013-01-24 09:18:00,
2013-01-24 09:23:00,38.4,36.3,30.02,South,187,0.0,4.0,92,0.00,,---,0.00,VWS V14.00,2013-01-24 09:23:00,
2013-01-24 09:28:00,38.4,36.3,30.02,South,181,1.0,4.0,92,0.00,,---,0.00,VWS V14.00,2013-01-24 09:28:00,
2013-01-24 09:33:00,38.4,36.3,30.02,South,184,4.0,6.0,92,0.00,,---,0.00,VWS V14.00,2013-01-24 09:33:00,
2013-01-24 09:38:00,38.5,36.4,30.01,South,191,4.0,4.0,92,0.00,,---,0.00,VWS V14.00,2013-01-24 09:38:00,
2013-01-24 09:43:00,38.6,36.5,30.01,SSE,148,4.0,5.0,92,0.00,,---,0.00,VWS V14.00,2013-01-24 09:43:00,
2013-01-24 09:48:00,38.7,36.6,30.01,South,177,4.0,6.0,92,0.00,,---,0.00,VWS V14.00,2013-01-24 09:48:00,
2013-01-24 09:53:00,38.8,36.7,30.01,South,189,4.0,7.0,92,0.00,,---,0.00,VWS V14.00,2013-01-24 09:53:00,
2013-01-24 09:58:00,38.8,36.4,30.01,South,179,10.0,12.0,91,0.00,,---,0.00,VWS V14.00,2013-01-24 09:58:00,
2013-01-24 10:03:00,38.8,35.8,30.01,SSE,153,6.0,12.0,89,0.00,,---,0.00,VWS V14.00,2013-01-24 10:03:00,
2013-01-24 10:08:00,39.0,36.0,30.01,SSE,156,12.0,15.0,89,0.00,,---,0.00,VWS V14.00,2013-01-24 10:08:00,
2013-01-24 10:13:00,39.1,35.6,30.01,SSE,155,12.0,15.0,87,0.00,,---,0.00,VWS V14.00,2013-01-24 10:13:00,
2013-01-24 10:18:00,39.2,36.0,30.02,South,177,3.0,6.0,88,0.00,,---,0.00,VWS V14.00,2013-01-24 10:18:00,
2013-01-24 10:23:00,39.2,36.0,30.02,South,187,6.0,6.0,88,0.00,,---,0.00,VWS V14.00,2013-01-24 10:23:00,
2013-01-24 10:28:00,39.2,36.0,30.02,SE,146,6.0,6.0,88,0.00,,---,0.00,VWS V14.00,2013-01-24 10:28:00,
2013-01-24 10:33:00,39.2,35.7,30.02,SSE,166,12.0,16.0,87,0.00,,---,0.00,VWS V14.00,2013-01-24 10:33:00,
2013-01-24 10:38:00,39.3,35.5,30.03,SSW,195,4.0,10.0,86,0.00,,---,0.00,VWS V14.00,2013-01-24 10:38:00,
2013-01-24 10:43:00,39.4,35.6,30.03,SSE,147,8.0,8.0,86,0.00,,---,0.00,VWS V14.00,2013-01-24 10:43:00,
2013-01-24 10:48:00,39.5,36.0,30.03,SSE,166,6.0,11.0,87,0.00,,---,0.00,VWS V14.00,2013-01-24 10:48:00,
2013-01-24 10:53:00,39.5,36.2,30.03,SSE,156,10.0,10.0,88,0.00,,---,0.00,VWS V14.00,2013-01-24 10:53:00,
2013-01-24 10:58:00,39.4,36.2,30.03,SSE,162,12.0,15.0,88,0.00,,---,0.00,VWS V14.00,2013-01-24 10:58:00,
2013-01-24 11:03:00,39.3,36.3,30.03,South,169,14.0,14.0,89,0.00,,---,0.00,VWS V14.00,2013-01-24 11:03:00,
2013-01-24 11:08:00,39.2,36.2,30.03,SSW,193,12.0,12.0,89,0.00,,---,0.00,VWS V14.00,2013-01-24 11:08:00,
2013-01-24 11:13:00,39.2,36.2,30.03,SE,145,12.0,15.0,89,0.00,,---,0.00,VWS V14.00,2013-01-24 11:13:00,
2013-01-24 11:18:00,39.3,36.3,30.03,South,191,4.0,10.0,89,0.00,,---,0.00,VWS V14.00,2013-01-24 11:18:00,
2013-01-24 11:24:00,39.3,36.3,30.03,SE,146,9.0,14.0,89,0.00,,---,0.00,VWS V14.00,2013-01-24 11:24:00,
2013-01-24 11:29:00,39.3,36.3,30.03,SSE,166,10.0,12.0,89,0.00,,---,0.00,VWS V14.00,2013-01-24 11:29:00,
2013-01-24 11:34:00,39.3,36.3,30.03,SSE,158,7.0,10.0,89,0.00,,---,0.00,VWS V14.00,2013-01-24 11:34:00,
2013-01-24 11:39:00,39.3,36.3,30.04,SSE,167,6.0,12.0,89,0.00,,---,0.00,VWS V14.00,2013-01-24 11:39:00,
2013-01-24 11:44:00,39.3,36.3,30.04,SSE,162,10.0,11.0,89,0.00,,---,0.00,VWS V14.00,2013-01-24 11:44:00,
2013-01-24 11:49:00,39.4,36.4,30.04,South,181,9.0,14.0,89,0.00,,---,0.00,VWS V14.00,2013-01-24 11:49:00,
2013-01-24 11:54:00,39.4,36.4,30.04,South,188,9.0,11.0,89,0.00,,---,0.00,VWS V14.00,2013-01-24 11:54:00,
2013-01-24 11:59:00,39.5,36.8,30.04,SSE,149,14.0,14.0,90,0.00,,---,0.00,VWS V14.00,2013-01-24 11:59:00,
2013-01-24 12:04:00,39.5,36.5,30.04,SE,141,10.0,10.0,89,0.00,,---,0.00,VWS V14.00,2013-01-24 12:04:00,
2013-01-24 12:09:00,39.5,36.8,30.04,SSE,153,5.0,10.0,90,0.00,,---,0.00,VWS V14.00,2013-01-24 12:09:00,
2013-01-24 12:14:00,39.6,36.9,30.04,SSE,168,9.0,11.0,90,0.00,,---,0.00,VWS V14.00,2013-01-24 12:14:00,
2013-01-24 12:19:00,39.5,36.5,30.05,South,173,7.0,10.0,89,0.00,,---,0.00,VWS V14.00,2013-01-24 12:19:00,
2013-01-24 12:24:00,39.5,36.5,30.05,SSE,153,11.0,13.0,89,0.00,,---,0.00,VWS V14.00,2013-01-24 12:24:00,
2013-01-24 12:29:00,39.6,36.6,30.05,South,172,9.0,11.0,89,0.00,,---,0.00,VWS V14.00,2013-01-24 12:29:00,
2013-01-24 12:34:00,39.6,36.9,30.05,SSE,150,10.0,10.0,90,0.00,,---,0.00,VWS V14.00,2013-01-24 12:34:00,
2013-01-24 12:39:00,39.7,37.0,30.05,South,176,11.0,11.0,90,0.00,,---,0.00,VWS V14.00,2013-01-24 12:39:00,
2013-01-24 12:44:00,39.7,37.0,30.05,SSE,151,8.0,8.0,90,0.00,,---,0.00,VWS V14.00,2013-01-24 12:44:00,
2013-01-24 12:49:00,39.8,37.1,30.04,SE,145,5.0,11.0,90,0.00,,---,0.00,VWS V14.00,2013-01-24 12:49:00,
2013-01-24 12:54:00,39.8,37.4,30.04,SSE,156,15.0,15.0,91,0.00,,---,0.00,VWS V14.00,2013-01-24 12:54:00,
2013-01-24 12:59:00,39.8,37.1,30.04,SSE,157,7.0,10.0,90,0.00,,---,0.00,VWS V14.00,2013-01-24 12:59:00,
2013-01-24 13:04:00,39.9,37.2,30.04,SSE,168,6.0,7.0,90,0.00,,---,0.00,VWS V14.00,2013-01-24 13:04:00,
2013-01-24 13:09:00,39.9,37.2,30.04,South,170,8.0,10.0,90,0.00,,---,0.00,VWS V14.00,2013-01-24 13:09:00,
2013-01-24 13:14:00,39.9,37.2,30.04,SSW,194,5.0,11.0,90,0.00,,---,0.00,VWS V14.00,2013-01-24 13:14:00,
2013-01-24 13:19:00,39.9,37.5,30.04,South,176,7.0,10.0,91,0.00,,---,0.00,VWS V14.00,2013-01-24 13:19:00,
2013-01-24 13:24:00,39.9,37.5,30.04,South,173,5.0,11.0,91,0.00,,---,0.00,VWS V14.00,2013-01-24 13:24:00,
2013-01-24 13:29:00,39.9,37.8,30.03,SSE,167,9.0,11.0,92,0.00,,---,0.00,VWS V14.00,2013-01-24 13:29:00,
2013-01-24 13:34:00,40.0,37.9,30.03,SSW,202,6.0,10.0,92,0.00,,---,0.00,VWS V14.00,2013-01-24 13:34:00,
2013-01-24 13:39:00,40.1,38.2,30.03,SSW,198,7.0,7.0,93,0.00,,---,0.00,VWS V14.00,2013-01-24 13:39:00,
2013-01-24 13:44:00,40.2,38.1,30.03,WSW,237,3.0,10.0,92,0.00,,---,0.00,VWS V14.00,2013-01-24 13:44:00,
2013-01-24 13:49:00,40.2,38.1,30.03,South,173,2.0,3.0,92,0.00,,---,0.00,VWS V14.00,2013-01-24 13:49:00,
2013-01-24 13:54:00,40.2,37.8,30.03,SSW,208,4.0,5.0,91,0.00,,---,0.00,VWS V14.00,2013-01-24 13:54:00,
2013-01-24 13:59:00,40.2,37.8,30.03,SSW,200,2.0,7.0,91,0.00,,---,0.00,VWS V14.00,2013-01-24 13:59:00,
2013-01-24 14:04:00,40.2,37.8,30.03,South,179,6.0,9.0,91,0.00,,---,0.00,VWS V14.00,2013-01-24 14:04:00,
2013-01-24 14:09:00,40.1,37.7,30.03,SSW,202,7.0,11.0,91,0.00,,---,0.00,VWS V14.00,2013-01-24 14:09:00,
2013-01-24 14:14:00,40.2,38.1,30.03,SSE,161,4.0,6.0,92,0.00,,---,0.00,VWS V14.00,2013-01-24 14:14:00,
2013-01-24 14:19:00,40.3,38.2,30.03,SSW,200,4.0,10.0,92,0.00,,---,0.00,VWS V14.00,2013-01-24 14:19:00,
2013-01-24 14:24:00,40.5,38.4,30.03,South,183,10.0,10.0,92,0.00,,---,0.00,VWS V14.00,2013-01-24 14:24:00,
2013-01-24 14:29:00,40.5,38.4,30.03,SW,217,4.0,7.0,92,0.00,,---,0.00,VWS V14.00,2013-01-24 14:29:00,
2013-01-24 14:34:00,40.5,38.4,30.03,South,186,5.0,6.0,92,0.00,,---,0.00,VWS V14.00,2013-01-24 14:34:00,
2013-01-24 14:39:00,40.4,38.3,30.03,South,190,7.0,13.0,92,0.00,,---,0.00,VWS V14.00,2013-01-24 14:39:00,
2013-01-24 14:44:00,40.4,38.3,30.03,South,188,6.0,7.0,92,0.00,,---,0.00,VWS V14.00,2013-01-24 14:44:00,
2013-01-24 14:49:00,40.4,38.5,30.03,South,186,4.0,4.0,93,0.00,,---,0.00,VWS V14.00,2013-01-24 14:49:00,
2013-01-24 14:54:00,40.4,38.5,30.03,SSW,200,2.0,9.0,93,0.00,,---,0.00,VWS V14.00,2013-01-24 14:54:00,
2013-01-24 14:59:00,40.3,38.4,30.03,SSW,206,0.0,4.0,93,0.00,,---,0.00,VWS V14.00,2013-01-24 14:59:00,
2013-01-24 15:04:00,40.3,38.4,30.03,South,183,2.0,6.0,93,0.00,,---,0.00,VWS V14.00,2013-01-24 15:04:00,
2013-01-24 15:09:00,40.2,38.3,30.03,SSW,197,4.0,11.0,93,0.00,,---,0.00,VWS V14.00,2013-01-24 15:09:00,
2013-01-24 15:14:00,40.1,38.2,30.03,SSW,197,5.0,11.0,93,0.00,,---,0.00,VWS V14.00,2013-01-24 15:14:00,
2013-01-24 15:20:00,40.1,38.0,30.03,South,190,5.0,9.0,92,0.00,,---,0.00,VWS V14.00,2013-01-24 15:20:00,
2013-01-24 15:25:00,40.1,38.2,30.03,South,191,7.0,8.0,93,0.00,,---,0.00,VWS V14.00,2013-01-24 15:25:00,
2013-01-24 15:30:00,40.1,38.2,30.03,South,186,5.0,5.0,93,0.00,,---,0.00,VWS V14.00,2013-01-24 15:30:00,
2013-01-24 15:35:00,40.2,38.3,30.03,South,191,7.0,7.0,93,0.00,,---,0.00,VWS V14.00,2013-01-24 15:35:00,
2013-01-24 15:40:00,40.2,38.3,30.03,SSW,212,4.0,13.0,93,0.00,,---,0.00,VWS V14.00,2013-01-24 15:40:00,
2013-01-24 15:45:00,40.3,38.7,30.03,South,191,6.0,13.0,94,0.00,,---,0.00,VWS V14.00,2013-01-24 15:45:00,
2013-01-24 15:50:00,40.4,38.8,30.03,South,185,8.0,12.0,94,0.00,,---,0.00,VWS V14.00,2013-01-24 15:50:00,
2013-01-24 15:55:00,40.5,38.9,30.03,SSE,156,5.0,13.0,94,0.00,,---,0.00,VWS V14.00,2013-01-24 15:55:00,
2013-01-24 16:00:00,40.6,39.0,30.03,South,187,3.0,11.0,94,0.00,,---,0.00,VWS V14.00,2013-01-24 16:00:00,
2013-01-24 16:05:00,40.6,39.0,30.03,SSW,201,2.0,5.0,94,0.00,,---,0.00,VWS V14.00,2013-01-24 16:05:00,
2013-01-24 16:10:00,40.6,39.0,30.03,South,178,4.0,9.0,94,0.00,,---,0.00,VWS V14.00,2013-01-24 16:10:00,
2013-01-24 16:15:00,40.6,39.0,30.03,SSW,199,6.0,8.0,94,0.00,,---,0.00,VWS V14.00,2013-01-24 16:15:00,
2013-01-24 16:20:00,40.5,38.9,30.03,South,174,7.0,13.0,94,0.00,,---,0.00,VWS V14.00,2013-01-24 16:20:00,
2013-01-24 16:25:00,40.5,38.9,30.04,SSW,196,7.0,8.0,94,0.00,,---,0.00,VWS V14.00,2013-01-24 16:25:00,
2013-01-24 16:30:00,40.5,38.9,30.04,SSW,212,5.0,6.0,94,0.00,,---,0.00,VWS V14.00,2013-01-24 16:30:00,
2013-01-24 16:35:00,40.4,38.8,30.04,SSW,198,6.0,10.0,94,0.00,,---,0.00,VWS V14.00,2013-01-24 16:35:00,
2013-01-24 16:40:00,40.4,38.8,30.04,South,189,12.0,12.0,94,0.00,,---,0.00,VWS V14.00,2013-01-24 16:40:00,
2013-01-24 16:45:00,40.4,38.8,30.04,South,188,3.0,5.0,94,0.00,,---,0.00,VWS V14.00,2013-01-24 16:45:00,
2013-01-24 16:50:00,40.3,38.7,30.04,SSW,212,8.0,12.0,94,0.00,,---,0.00,VWS V14.00,2013-01-24 16:50:00,
2013-01-24 16:55:00,40.2,38.6,30.04,South,186,7.0,14.0,94,0.00,,---,0.00,VWS V14.00,2013-01-24 16:55:00,
2013-01-24 17:00:00,40.2,38.6,30.03,SSW,202,19.0,19.0,94,0.00,,---,0.00,VWS V14.00,2013-01-24 17:00:00,
2013-01-24 17:05:00,40.2,38.6,30.03,South,175,16.0,16.0,94,0.00,,---,0.00,VWS V14.00,2013-01-24 17:05:00,
2013-01-24 17:10:00,40.2,38.3,30.02,SSE,164,14.0,14.0,93,0.00,,---,0.00,VWS V14.00,2013-01-24 17:10:00,
2013-01-24 17:15:00,40.2,38.3,30.03,South,182,8.0,15.0,93,0.00,,---,0.00,VWS V14.00,2013-01-24 17:15:00,
2013-01-24 17:20:00,40.2,38.3,30.03,SSW,196,10.0,16.0,93,0.00,,---,0.00,VWS V14.00,2013-01-24 17:20:00,
2013-01-24 17:25:00,40.1,38.2,30.03,SSW,210,17.0,18.0,93,0.00,,---,0.00,VWS V14.00,2013-01-24 17:25:00,
2013-01-24 17:30:00,40.1,38.2,30.03,SSW,192,11.0,17.0,93,0.00,,---,0.00,VWS V14.00,2013-01-24 17:30:00,
2013-01-24 17:35:00,40.2,38.1,30.03,South,188,13.0,16.0,92,0.00,,---,0.00,VWS V14.00,2013-01-24 17:35:00,
2013-01-24 17:43:00,40.2,38.3,30.03,South,189,10.0,12.0,93,0.00,,---,0.00,VWS V14.00,2013-01-24 17:43:00,
2013-01-24 17:49:00,40.4,38.5,30.03,SSE,168,20.0,20.0,93,0.00,,---,0.00,VWS V14.00,2013-01-24 17:49:00,
2013-01-24 17:55:00,40.4,38.5,30.03,SSW,204,6.0,15.0,93,0.00,,---,0.00,VWS V14.00,2013-01-24 17:55:00,
2013-01-24 18:00:00,40.5,38.6,30.03,South,191,7.0,17.0,93,0.00,,---,0.00,VWS V14.00,2013-01-24 18:00:00,
2013-01-24 18:05:00,40.5,38.6,30.03,SSE,161,9.0,13.0,93,0.00,,---,0.00,VWS V14.00,2013-01-24 18:05:00,
2013-01-24 18:10:00,40.6,38.7,30.03,South,183,15.0,16.0,93,0.00,,---,0.00,VWS V14.00,2013-01-24 18:10:00,
2013-01-24 18:15:00,40.6,38.7,30.03,South,177,10.0,15.0,93,0.00,,---,0.00,VWS V14.00,2013-01-24 18:15:00,
2013-01-24 18:23:00,40.6,38.7,30.03,South,173,13.0,16.0,93,0.00,,---,0.00,VWS V14.00,2013-01-24 18:23:00,
2013-01-24 18:29:00,40.6,38.7,30.02,South,184,11.0,17.0,93,0.00,,---,0.00,VWS V14.00,2013-01-24 18:29:00,
2013-01-24 18:34:00,40.6,38.7,30.02,South,170,13.0,20.0,93,0.00,,---,0.00,VWS V14.00,2013-01-24 18:34:00,
2013-01-24 18:39:00,40.5,38.6,30.02,South,169,5.0,5.0,93,0.00,,---,0.00,VWS V14.00,2013-01-24 18:39:00,
2013-01-24 18:44:00,40.5,38.6,30.02,South,190,12.0,16.0,93,0.00,,---,0.00,VWS V14.00,2013-01-24 18:44:00,
2013-01-24 18:49:00,40.7,38.8,30.03,SSW,193,10.0,13.0,93,0.00,,---,0.00,VWS V14.00,2013-01-24 18:49:00,
2013-01-24 18:54:00,40.7,38.6,30.02,SSE,168,7.0,20.0,92,0.00,,---,0.00,VWS V14.00,2013-01-24 18:54:00,
2013-01-24 18:59:00,40.6,38.5,30.02,South,178,14.0,14.0,92,0.00,,---,0.00,VWS V14.00,2013-01-24 18:59:00,
2013-01-24 19:04:00,40.6,38.5,30.02,SSW,209,18.0,18.0,92,0.00,,---,0.00,VWS V14.00,2013-01-24 19:04:00,
2013-01-24 19:09:00,40.5,38.4,30.02,South,186,18.0,23.0,92,0.00,,---,0.00,VWS V14.00,2013-01-24 19:09:00,
2013-01-24 19:14:00,40.5,38.4,30.02,South,189,6.0,14.0,92,0.00,,---,0.00,VWS V14.00,2013-01-24 19:14:00,
2013-01-24 19:19:00,40.5,38.1,30.02,SSE,164,13.0,14.0,91,0.00,,---,0.00,VWS V14.00,2013-01-24 19:19:00,
2013-01-24 19:24:00,40.5,38.1,30.02,South,185,21.0,21.0,91,0.00,,---,0.00,VWS V14.00,2013-01-24 19:24:00,
2013-01-24 19:29:00,40.5,38.1,30.02,SSE,156,10.0,15.0,91,0.00,,---,0.00,VWS V14.00,2013-01-24 19:29:00,
2013-01-24 19:34:00,40.5,38.4,30.01,SSE,167,5.0,15.0,92,0.00,,---,0.00,VWS V14.00,2013-01-24 19:34:00,
2013-01-24 19:39:00,40.5,38.1,30.01,South,169,8.0,13.0,91,0.00,,---,0.00,VWS V14.00,2013-01-24 19:39:00,
2013-01-24 19:44:00,40.5,38.1,30.01,SW,216,16.0,18.0,91,0.00,,---,0.00,VWS V14.00,2013-01-24 19:44:00,
2013-01-24 19:49:00,40.5,38.1,30.01,South,185,12.0,21.0,91,0.00,,---,0.00,VWS V14.00,2013-01-24 19:49:00,
2013-01-24 19:54:00,40.5,38.1,30.01,South,175,17.0,17.0,91,0.00,,---,0.00,VWS V14.00,2013-01-24 19:54:00,
2013-01-24 20:00:00,40.5,38.1,30.00,South,171,7.0,13.0,91,0.00,,---,0.00,VWS V14.00,2013-01-24 20:00:00,
2013-01-24 20:05:00,40.5,38.1,30.00,SSE,154,11.0,18.0,91,0.00,,---,0.00,VWS V14.00,2013-01-24 20:05:00,
2013-01-24 20:10:00,40.5,38.4,30.00,South,172,12.0,14.0,92,0.00,,---,0.00,VWS V14.00,2013-01-24 20:10:00,
2013-01-24 20:15:00,40.5,38.4,30.00,SSE,150,9.0,23.0,92,0.00,,---,0.00,VWS V14.00,2013-01-24 20:15:00,
2013-01-24 20:20:00,40.4,38.3,30.00,South,180,11.0,19.0,92,0.00,,---,0.00,VWS V14.00,2013-01-24 20:20:00,
2013-01-24 20:25:00,40.4,38.3,30.00,SSW,197,8.0,16.0,92,0.00,,---,0.00,VWS V14.00,2013-01-24 20:25:00,
2013-01-24 20:30:00,40.3,38.2,30.00,SSW,198,11.0,24.0,92,0.00,,---,0.00,VWS V14.00,2013-01-24 20:30:00,
2013-01-24 20:35:00,40.2,38.1,29.99,South,173,16.0,16.0,92,0.00,,---,0.00,VWS V14.00,2013-01-24 20:35:00,
2013-01-24 20:40:00,40.2,38.1,29.99,South,177,11.0,19.0,92,0.00,,---,0.00,VWS V14.00,2013-01-24 20:40:00,
2013-01-24 20:45:00,40.2,38.1,29.99,SSE,167,9.0,20.0,92,0.00,,---,0.00,VWS V14.00,2013-01-24 20:45:00,
2013-01-24 20:50:00,40.2,38.1,29.99,South,172,12.0,17.0,92,0.00,,---,0.00,VWS V14.00,2013-01-24 20:50:00,
2013-01-24 20:55:00,40.2,38.1,30.00,South,170,13.0,22.0,92,0.00,,---,0.00,VWS V14.00,2013-01-24 20:55:00,
2013-01-24 21:00:00,40.1,38.0,30.00,South,173,12.0,16.0,92,0.00,,---,0.00,VWS V14.00,2013-01-24 21:00:00,
2013-01-24 21:05:00,40.2,38.1,30.00,SSE,160,15.0,19.0,92,0.00,,---,0.00,VWS V14.00,2013-01-24 21:05:00,
2013-01-24 21:10:00,40.2,38.1,30.00,South,174,14.0,22.0,92,0.00,,---,0.00,VWS V14.00,2013-01-24 21:10:00,
2013-01-24 21:15:00,40.2,38.1,30.00,SSE,162,12.0,20.0,92,0.00,,---,0.00,VWS V14.00,2013-01-24 21:15:00,
2013-01-24 21:20:00,40.3,38.2,29.99,SSE,162,22.0,23.0,92,0.00,,---,0.00,VWS V14.00,2013-01-24 21:20:00,
2013-01-24 21:25:00,40.3,38.2,29.99,SSW,200,22.0,22.0,92,0.00,,---,0.00,VWS V14.00,2013-01-24 21:25:00,
2013-01-24 21:30:00,40.4,38.5,29.99,SSE,148,15.0,17.0,93,0.00,,---,0.00,VWS V14.00,2013-01-24 21:30:00,
2013-01-24 21:35:00,40.4,38.5,29.98,SSW,198,15.0,20.0,93,0.00,,---,0.00,VWS V14.00,2013-01-24 21:35:00,
2013-01-24 21:41:00,40.4,38.5,29.98,South,171,23.0,23.0,93,0.00,,---,0.00,VWS V14.00,2013-01-24 21:41:00,
2013-01-24 21:46:00,40.3,38.4,29.97,South,173,11.0,22.0,93,0.00,,---,0.00,VWS V14.00,2013-01-24 21:46:00,
2013-01-24 21:51:00,40.3,38.2,29.97,SSE,156,9.0,24.0,92,0.00,,---,0.00,VWS V14.00,2013-01-24 21:51:00,
2013-01-24 21:56:00,40.3,38.4,29.97,South,181,16.0,19.0,93,0.00,,---,0.00,VWS V14.00,2013-01-24 21:56:00,
2013-01-24 22:01:00,40.4,38.5,29.98,SSE,167,3.0,18.0,93,0.00,,---,0.00,VWS V14.00,2013-01-24 22:01:00,
2013-01-24 22:06:00,40.4,38.5,29.98,South,182,23.0,26.0,93,0.00,,---,0.00,VWS V14.00,2013-01-24 22:06:00,
2013-01-24 22:11:00,40.5,38.6,29.98,SSE,159,11.0,18.0,93,0.00,,---,0.00,VWS V14.00,2013-01-24 22:11:00,
2013-01-24 22:16:00,40.6,38.7,29.98,SSE,168,7.0,9.0,93,0.00,,---,0.00,VWS V14.00,2013-01-24 22:16:00,
2013-01-24 22:21:00,40.6,38.7,29.98,South,174,12.0,20.0,93,0.00,,---,0.00,VWS V14.00,2013-01-24 22:21:00,
2013-01-24 22:26:00,40.7,38.8,29.98,South,177,12.0,15.0,93,0.00,,---,0.00,VWS V14.00,2013-01-24 22:26:00,
2013-01-24 22:31:00,40.7,38.8,29.98,SSE,164,11.0,15.0,93,0.00,,---,0.00,VWS V14.00,2013-01-24 22:31:00,
2013-01-24 22:36:00,40.8,38.9,29.98,South,186,11.0,17.0,93,0.00,,---,0.00,VWS V14.00,2013-01-24 22:36:00,
2013-01-24 22:41:00,40.7,38.8,29.98,South,176,11.0,17.0,93,0.00,,---,0.00,VWS V14.00,2013-01-24 22:41:00,
2013-01-24 22:46:00,40.7,38.8,29.98,South,180,14.0,14.0,93,0.00,,---,0.00,VWS V14.00,2013-01-24 22:46:00,
2013-01-24 22:51:00,40.7,38.8,29.97,South,174,10.0,13.0,93,0.00,,---,0.00,VWS V14.00,2013-01-24 22:51:00,
2013-01-24 22:56:00,40.7,38.8,29.98,SE,132,11.0,19.0,93,0.00,,---,0.00,VWS V14.00,2013-01-24 22:56:00,
2013-01-24 23:01:00,40.8,39.2,29.97,SE,141,6.0,12.0,94,0.00,,---,0.00,VWS V14.00,2013-01-24 23:01:00,
2013-01-24 23:06:00,40.8,39.2,29.97,SSE,156,13.0,21.0,94,0.00,,---,0.00,VWS V14.00,2013-01-24 23:06:00,
2013-01-24 23:11:00,40.8,39.2,29.97,SSE,160,14.0,17.0,94,0.00,,---,0.00,VWS V14.00,2013-01-24 23:11:00,
2013-01-24 23:16:00,40.8,39.2,29.97,South,171,12.0,14.0,94,0.00,,---,0.00,VWS V14.00,2013-01-24 23:16:00,
2013-01-24 23:21:00,40.9,39.3,29.97,SSE,152,15.0,18.0,94,0.00,,---,0.00,VWS V14.00,2013-01-24 23:21:00,
2013-01-24 23:26:00,41.1,39.5,29.98,South,178,9.0,14.0,94,0.00,,---,0.00,VWS V14.00,2013-01-24 23:26:00,
2013-01-24 23:31:00,41.2,39.9,29.97,SSW,199,7.0,17.0,95,0.00,,---,0.00,VWS V14.00,2013-01-24 23:31:00,
2013-01-24 23:36:00,41.3,40.0,29.97,South,169,8.0,10.0,95,0.00,,---,0.00,VWS V14.00,2013-01-24 23:36:00,
2013-01-24 23:41:00,41.3,40.0,29.96,SSE,168,5.0,16.0,95,0.00,,---,0.00,VWS V14.00,2013-01-24 23:41:00,
2013-01-24 23:46:00,41.3,40.0,29.96,South,185,17.0,21.0,95,0.00,,---,0.00,VWS V14.00,2013-01-24 23:46:00,
2013-01-24 23:51:00,41.3,40.0,29.96,South,185,11.0,14.0,95,0.00,,---,0.00,VWS V14.00,2013-01-24 23:51:00,
2013-01-24 23:56:00,41.4,40.1,29.96,South,179,5.0,10.0,95,0.00,,---,0.00,VWS V14.00,2013-01-24 23:56:00,